SWA4007 KDAL-KLAS
Flight info
| Callsign | SWA4007 |
|---|---|
| Flight time | 2h 39m |
| Altitude | 30000 |
| Route | KKITY5 BRHMA CNX ZUN HAHAA RKSTR4 |
| Aircraft | B737/M-SADE2E3GIJ4RWZ/LB1D1 |
Departure
| Time | 2026-05-03 20:50 |
|---|---|
| Airport | Dallas Love Field (KDAL) |
Arrival
| Time | 2026-05-03 23:30 |
|---|---|
| Airport | Harry Reid International Airport (KLAS) |
| Time | Latitude | Longitude | Altitude | Speed | Heading |
|---|---|---|---|---|---|
| 2026-05-03 20:27 | 32.84567 | -96.84785 | 483 ft | 0 kts | 0° |
| 2026-05-03 20:36 | 32.84565 | -96.84785 | 483 ft | 2 kts | 0° |
| 2026-05-03 20:36 | 32.84540 | -96.84786 | 478 ft | 4 kts | 0° |
| 2026-05-03 20:36 | 32.84519 | -96.84786 | 479 ft | 4 kts | 10° |
| 2026-05-03 20:37 | 32.84510 | -96.84787 | 475 ft | 3 kts | 90° |
| 2026-05-03 20:37 | 32.84510 | -96.84812 | 475 ft | 0 kts | 90° |
| 2026-05-03 20:40 | 32.84510 | -96.84727 | 481 ft | 18 kts | 90° |
| 2026-05-03 20:40 | 32.84604 | -96.84628 | 482 ft | 19 kts | 340° |
| 2026-05-03 20:40 | 32.84711 | -96.84756 | 483 ft | 16 kts | 312° |
| 2026-05-03 20:41 | 32.84744 | -96.84881 | 483 ft | 16 kts | 268° |
| 2026-05-03 20:41 | 32.84744 | -96.84951 | 483 ft | 2 kts | 270° |
| 2026-05-03 20:41 | 32.84744 | -96.84954 | 483 ft | 3 kts | 270° |
| 2026-05-03 20:41 | 32.84744 | -96.85008 | 483 ft | 14 kts | 270° |
| 2026-05-03 20:42 | 32.84746 | -96.85181 | 482 ft | 23 kts | 270° |
| 2026-05-03 20:42 | 32.84708 | -96.85323 | 480 ft | 18 kts | 197° |
| 2026-05-03 20:42 | 32.84586 | -96.85337 | 482 ft | 17 kts | 185° |
| 2026-05-03 20:42 | 32.84469 | -96.85350 | 480 ft | 17 kts | 182° |
| 2026-05-03 20:43 | 32.84374 | -96.85284 | 482 ft | 16 kts | 136° |
| 2026-05-03 20:43 | 32.84296 | -96.85194 | 482 ft | 15 kts | 135° |
| 2026-05-03 20:43 | 32.84222 | -96.85107 | 475 ft | 15 kts | 135° |
| 2026-05-03 20:43 | 32.84150 | -96.85024 | 482 ft | 14 kts | 136° |
| 2026-05-03 20:44 | 32.84065 | -96.84926 | 482 ft | 23 kts | 136° |
| 2026-05-03 20:44 | 32.83946 | -96.84788 | 478 ft | 23 kts | 136° |
| 2026-05-03 20:44 | 32.83832 | -96.84657 | 482 ft | 22 kts | 136° |
| 2026-05-03 20:44 | 32.83725 | -96.84533 | 482 ft | 13 kts | 136° |
| 2026-05-03 20:45 | 32.83687 | -96.84488 | 482 ft | 0 kts | 132° |
| 2026-05-03 20:45 | 32.83686 | -96.84476 | 475 ft | 7 kts | 81° |
| 2026-05-03 20:45 | 32.83742 | -96.84462 | 476 ft | 11 kts | 313° |
| 2026-05-03 20:45 | 32.83752 | -96.84541 | 480 ft | 11 kts | 258° |
| 2026-05-03 20:46 | 32.83798 | -96.84618 | 482 ft | 15 kts | 315° |
| 2026-05-03 20:46 | 32.83926 | -96.84765 | 478 ft | 28 kts | 315° |
| 2026-05-03 20:46 | 32.84060 | -96.84920 | 482 ft | 26 kts | 317° |
| 2026-05-03 20:46 | 32.84185 | -96.85064 | 482 ft | 24 kts | 315° |
| 2026-05-03 20:47 | 32.84300 | -96.85199 | 482 ft | 23 kts | 315° |
| 2026-05-03 20:47 | 32.84412 | -96.85328 | 482 ft | 22 kts | 316° |
| 2026-05-03 20:47 | 32.84521 | -96.85453 | 482 ft | 21 kts | 316° |
| 2026-05-03 20:47 | 32.84626 | -96.85575 | 482 ft | 21 kts | 315° |
| 2026-05-03 20:48 | 32.84738 | -96.85709 | 483 ft | 27 kts | 319° |
| 2026-05-03 20:48 | 32.84894 | -96.85884 | 482 ft | 35 kts | 316° |
| 2026-05-03 20:48 | 32.85028 | -96.86039 | 482 ft | 21 kts | 316° |
| 2026-05-03 20:48 | 32.85091 | -96.86112 | 482 ft | 14 kts | 315° |
| 2026-05-03 20:49 | 32.85177 | -96.86216 | 482 ft | 15 kts | 309° |
| 2026-05-03 20:49 | 32.85138 | -96.86312 | 480 ft | 18 kts | 205° |
| 2026-05-03 20:49 | 32.84934 | -96.86115 | 482 ft | 74 kts | 136° |
| 2026-05-03 20:49 | 32.84392 | -96.85491 | 482 ft | 140 kts | 136° |
| 2026-05-03 20:50 | 32.83590 | -96.84530 | 591 ft | 182 kts | 136° |
| 2026-05-03 20:50 | 32.82642 | -96.83376 | 999 ft | 206 kts | 136° |
| 2026-05-03 20:50 | 32.81669 | -96.82156 | 1851 ft | 195 kts | 138° |
| 2026-05-03 20:50 | 32.80678 | -96.80930 | 2364 ft | 220 kts | 139° |
| 2026-05-03 20:51 | 32.79565 | -96.79568 | 2854 ft | 235 kts | 137° |
| 2026-05-03 20:51 | 32.78414 | -96.78144 | 3507 ft | 244 kts | 137° |
| 2026-05-03 20:51 | 32.77194 | -96.76625 | 4027 ft | 260 kts | 137° |
| 2026-05-03 20:51 | 32.75933 | -96.75050 | 4910 ft | 263 kts | 139° |
| 2026-05-03 20:52 | 32.74622 | -96.73507 | 5811 ft | 269 kts | 140° |
| 2026-05-03 20:52 | 32.73270 | -96.71954 | 6764 ft | 270 kts | 141° |
| 2026-05-03 20:52 | 32.71690 | -96.70771 | 7578 ft | 272 kts | 167° |
| 2026-05-03 20:52 | 32.69835 | -96.70591 | 8545 ft | 270 kts | 189° |
| 2026-05-03 20:53 | 32.68051 | -96.71254 | 9390 ft | 278 kts | 205° |
| 2026-05-03 20:53 | 32.66269 | -96.72242 | 10279 ft | 283 kts | 206° |
| 2026-05-03 20:53 | 32.64436 | -96.73282 | 10819 ft | 305 kts | 208° |
| 2026-05-03 20:53 | 32.62674 | -96.74853 | 11001 ft | 333 kts | 230° |
| 2026-05-03 20:54 | 32.61587 | -96.77336 | 11521 ft | 347 kts | 256° |
| 2026-05-03 20:54 | 32.61374 | -96.83145 | 13138 ft | 361 kts | 270° |
| 2026-05-03 20:54 | 32.61425 | -96.86134 | 14029 ft | 365 kts | 271° |
| 2026-05-03 20:55 | 32.61477 | -96.89119 | 14855 ft | 367 kts | 271° |
| 2026-05-03 20:55 | 32.61518 | -96.92153 | 15804 ft | 366 kts | 271° |
| 2026-05-03 20:55 | 32.61548 | -96.95183 | 16767 ft | 367 kts | 271° |
| 2026-05-03 20:55 | 32.61568 | -96.98218 | 17661 ft | 371 kts | 271° |
| 2026-05-03 20:56 | 32.61582 | -97.01292 | 18344 ft | 380 kts | 270° |
| 2026-05-03 20:56 | 32.61593 | -97.04466 | 18882 ft | 383 kts | 271° |
| 2026-05-03 20:56 | 32.61601 | -97.07615 | 19751 ft | 382 kts | 271° |
| 2026-05-03 20:56 | 32.61609 | -97.10780 | 20513 ft | 384 kts | 272° |
| 2026-05-03 20:57 | 32.61616 | -97.13958 | 21226 ft | 387 kts | 272° |
| 2026-05-03 20:57 | 32.61622 | -97.17160 | 21928 ft | 389 kts | 272° |
| 2026-05-03 20:57 | 32.61628 | -97.20340 | 22619 ft | 391 kts | 272° |
| 2026-05-03 20:57 | 32.61632 | -97.23571 | 23289 ft | 394 kts | 272° |
| 2026-05-03 20:58 | 32.61636 | -97.26829 | 23921 ft | 396 kts | 273° |
| 2026-05-03 20:58 | 32.61639 | -97.30096 | 24476 ft | 397 kts | 273° |
| 2026-05-03 20:58 | 32.61862 | -97.33144 | 24974 ft | 396 kts | 284° |
| 2026-05-03 20:58 | 32.62762 | -97.36210 | 25545 ft | 394 kts | 295° |
| 2026-05-03 20:59 | 32.63941 | -97.39147 | 26123 ft | 395 kts | 296° |
| 2026-05-03 20:59 | 32.65085 | -97.41894 | 26592 ft | 396 kts | 297° |
| 2026-05-03 20:59 | 32.65925 | -97.43904 | 26934 ft | 398 kts | 296° |
| 2026-05-03 21:00 | 32.67148 | -97.46855 | 27446 ft | 399 kts | 296° |
| 2026-05-03 21:00 | 32.67970 | -97.48859 | 27781 ft | 401 kts | 296° |
| 2026-05-03 21:00 | 32.69564 | -97.52787 | 28732 ft | 395 kts | 296° |
| 2026-05-03 21:00 | 32.70739 | -97.55705 | 29592 ft | 389 kts | 296° |
| 2026-05-03 21:01 | 32.71905 | -97.58607 | 30044 ft | 388 kts | 296° |
| 2026-05-03 21:01 | 32.73060 | -97.61488 | 30120 ft | 384 kts | 296° |
| 2026-05-03 21:01 | 32.75363 | -97.67239 | 30157 ft | 388 kts | 296° |
| 2026-05-03 21:02 | 32.77664 | -97.73006 | 30177 ft | 390 kts | 294° |
| 2026-05-03 21:02 | 32.79326 | -97.79163 | 30168 ft | 393 kts | 287° |
| 2026-05-03 21:03 | 32.80709 | -97.85434 | 30161 ft | 391 kts | 287° |
| 2026-05-03 21:03 | 32.82113 | -97.91653 | 30102 ft | 388 kts | 287° |
| 2026-05-03 21:04 | 32.83531 | -97.97782 | 30085 ft | 386 kts | 287° |
| 2026-05-03 21:04 | 32.84960 | -98.03923 | 30102 ft | 384 kts | 287° |
| 2026-05-03 21:05 | 32.86382 | -98.10044 | 30102 ft | 384 kts | 287° |
| 2026-05-03 21:05 | 32.87800 | -98.16169 | 30100 ft | 384 kts | 287° |
| 2026-05-03 21:06 | 32.89207 | -98.22257 | 30110 ft | 385 kts | 287° |
| 2026-05-03 21:06 | 32.90630 | -98.28424 | 30094 ft | 387 kts | 287° |
| 2026-05-03 21:07 | 32.92057 | -98.34610 | 30077 ft | 388 kts | 286° |
| 2026-05-03 21:07 | 32.93479 | -98.40793 | 30089 ft | 387 kts | 286° |
| 2026-05-03 21:08 | 32.94886 | -98.46929 | 30078 ft | 386 kts | 286° |
| 2026-05-03 21:08 | 32.96296 | -98.53095 | 30081 ft | 386 kts | 286° |
| 2026-05-03 21:09 | 32.97703 | -98.59258 | 30077 ft | 385 kts | 286° |
| 2026-05-03 21:09 | 32.99105 | -98.65416 | 30079 ft | 385 kts | 286° |
| 2026-05-03 21:10 | 33.00493 | -98.71529 | 30083 ft | 385 kts | 286° |
| 2026-05-03 21:10 | 33.01885 | -98.77674 | 30079 ft | 384 kts | 286° |
| 2026-05-03 21:11 | 33.03272 | -98.83814 | 30080 ft | 383 kts | 286° |
| 2026-05-03 21:11 | 33.04655 | -98.89950 | 30079 ft | 383 kts | 285° |
| 2026-05-03 21:12 | 33.06026 | -98.96045 | 30069 ft | 383 kts | 285° |
| 2026-05-03 21:12 | 33.07402 | -99.02181 | 30069 ft | 383 kts | 285° |
| 2026-05-03 21:13 | 33.08776 | -99.08320 | 30067 ft | 383 kts | 285° |
| 2026-05-03 21:13 | 33.10146 | -99.14458 | 30069 ft | 383 kts | 285° |
| 2026-05-03 21:14 | 33.11513 | -99.20600 | 30068 ft | 383 kts | 285° |
| 2026-05-03 21:14 | 33.12867 | -99.26700 | 30069 ft | 383 kts | 285° |
| 2026-05-03 21:15 | 33.14228 | -99.32846 | 30058 ft | 383 kts | 285° |
| 2026-05-03 21:15 | 33.15587 | -99.38998 | 30056 ft | 383 kts | 285° |
| 2026-05-03 21:16 | 33.16942 | -99.45146 | 30052 ft | 383 kts | 285° |
| 2026-05-03 21:16 | 33.18283 | -99.51247 | 30046 ft | 382 kts | 285° |
| 2026-05-03 21:17 | 33.19402 | -99.56345 | 30051 ft | 382 kts | 285° |
| 2026-05-03 21:17 | 33.20988 | -99.63506 | 30048 ft | 381 kts | 285° |
| 2026-05-03 21:18 | 33.22380 | -99.69614 | 30050 ft | 381 kts | 285° |
| 2026-05-03 21:18 | 33.23761 | -99.75684 | 30052 ft | 381 kts | 285° |
| 2026-05-03 21:19 | 33.25144 | -99.81790 | 30053 ft | 381 kts | 285° |
| 2026-05-03 21:19 | 33.26522 | -99.87903 | 30053 ft | 380 kts | 285° |
| 2026-05-03 21:20 | 33.27893 | -99.94002 | 30045 ft | 380 kts | 285° |
| 2026-05-03 21:20 | 33.29254 | -100.00069 | 30040 ft | 381 kts | 285° |
| 2026-05-03 21:21 | 33.30624 | -100.06193 | 30037 ft | 382 kts | 285° |
| 2026-05-03 21:21 | 33.31996 | -100.12344 | 30035 ft | 383 kts | 285° |
| 2026-05-03 21:22 | 33.33368 | -100.18510 | 30034 ft | 384 kts | 285° |
| 2026-05-03 21:22 | 33.34735 | -100.24669 | 30023 ft | 382 kts | 285° |
| 2026-05-03 21:23 | 33.36084 | -100.30759 | 30027 ft | 381 kts | 285° |
| 2026-05-03 21:23 | 33.37435 | -100.36877 | 30022 ft | 380 kts | 285° |
| 2026-05-03 21:24 | 33.38779 | -100.42975 | 30027 ft | 379 kts | 285° |
| 2026-05-03 21:24 | 33.40119 | -100.49069 | 30021 ft | 379 kts | 285° |
| 2026-05-03 21:25 | 33.41447 | -100.55133 | 30035 ft | 380 kts | 285° |
| 2026-05-03 21:25 | 33.42784 | -100.61246 | 30007 ft | 379 kts | 284° |
| 2026-05-03 21:26 | 33.44115 | -100.67348 | 30020 ft | 378 kts | 284° |
| 2026-05-03 21:26 | 33.45440 | -100.73440 | 30021 ft | 378 kts | 284° |
| 2026-05-03 21:27 | 33.46761 | -100.79529 | 30021 ft | 378 kts | 284° |
| 2026-05-03 21:27 | 33.48071 | -100.85581 | 30047 ft | 379 kts | 284° |
| 2026-05-03 21:28 | 33.49394 | -100.91712 | 30020 ft | 381 kts | 284° |
| 2026-05-03 21:28 | 33.50720 | -100.97871 | 30015 ft | 383 kts | 284° |
| 2026-05-03 21:29 | 33.52049 | -101.04058 | 30014 ft | 383 kts | 284° |
| 2026-05-03 21:29 | 33.53323 | -101.10221 | 30012 ft | 383 kts | 284° |
| 2026-05-03 21:30 | 33.54568 | -101.16421 | 30012 ft | 382 kts | 283° |
| 2026-05-03 21:30 | 33.55808 | -101.22609 | 30011 ft | 381 kts | 283° |
| 2026-05-03 21:31 | 33.57048 | -101.28783 | 30008 ft | 381 kts | 283° |
| 2026-05-03 21:31 | 33.58284 | -101.34943 | 30005 ft | 379 kts | 284° |
| 2026-05-03 21:32 | 33.59507 | -101.41049 | 30005 ft | 378 kts | 284° |
| 2026-05-03 21:32 | 33.60726 | -101.47155 | 30032 ft | 377 kts | 284° |
| 2026-05-03 21:33 | 33.61944 | -101.53277 | 30044 ft | 377 kts | 283° |
| 2026-05-03 21:33 | 33.63159 | -101.59397 | 30071 ft | 377 kts | 283° |
| 2026-05-03 21:34 | 33.64366 | -101.65492 | 30078 ft | 378 kts | 283° |
| 2026-05-03 21:34 | 33.65578 | -101.71629 | 30101 ft | 378 kts | 283° |
| 2026-05-03 21:35 | 33.66789 | -101.77783 | 30115 ft | 380 kts | 283° |
| 2026-05-03 21:35 | 33.68002 | -101.83965 | 30103 ft | 381 kts | 283° |
| 2026-05-03 21:36 | 33.69217 | -101.90168 | 30102 ft | 382 kts | 283° |
| 2026-05-03 21:36 | 33.70421 | -101.96339 | 30086 ft | 382 kts | 283° |
| 2026-05-03 21:37 | 33.71629 | -102.02543 | 30066 ft | 381 kts | 283° |
| 2026-05-03 21:37 | 33.72831 | -102.08734 | 30033 ft | 380 kts | 283° |
| 2026-05-03 21:38 | 33.74024 | -102.14900 | 30018 ft | 378 kts | 283° |
| 2026-05-03 21:38 | 33.75203 | -102.21013 | 29984 ft | 378 kts | 283° |
| 2026-05-03 21:39 | 33.76388 | -102.27167 | 29979 ft | 378 kts | 283° |
| 2026-05-03 21:39 | 33.77569 | -102.33323 | 29979 ft | 378 kts | 283° |
| 2026-05-03 21:40 | 33.78748 | -102.39485 | 29980 ft | 379 kts | 283° |
| 2026-05-03 21:40 | 33.79916 | -102.45609 | 29971 ft | 377 kts | 283° |
| 2026-05-03 21:41 | 33.81085 | -102.51750 | 29978 ft | 376 kts | 283° |
| 2026-05-03 21:41 | 33.82246 | -102.57873 | 29972 ft | 375 kts | 283° |
| 2026-05-03 21:42 | 33.83403 | -102.63989 | 29987 ft | 376 kts | 282° |
| 2026-05-03 21:42 | 33.84553 | -102.70087 | 29990 ft | 377 kts | 282° |
| 2026-05-03 21:43 | 33.85712 | -102.76246 | 29974 ft | 378 kts | 282° |
| 2026-05-03 21:43 | 33.86868 | -102.82414 | 29970 ft | 378 kts | 282° |
| 2026-05-03 21:44 | 33.88024 | -102.88594 | 29976 ft | 379 kts | 282° |
| 2026-05-03 21:44 | 33.89168 | -102.94734 | 29971 ft | 379 kts | 282° |
| 2026-05-03 21:45 | 33.90318 | -103.00918 | 29970 ft | 378 kts | 282° |
| 2026-05-03 21:45 | 33.91462 | -103.07095 | 29969 ft | 378 kts | 282° |
| 2026-05-03 21:46 | 33.92603 | -103.13265 | 29974 ft | 377 kts | 282° |
| 2026-05-03 21:46 | 33.93737 | -103.19425 | 29970 ft | 377 kts | 282° |
| 2026-05-03 21:47 | 33.94860 | -103.25535 | 29971 ft | 376 kts | 282° |
| 2026-05-03 21:47 | 33.95986 | -103.31686 | 29982 ft | 376 kts | 282° |
| 2026-05-03 21:48 | 33.97110 | -103.37843 | 29983 ft | 376 kts | 282° |
| 2026-05-03 21:48 | 33.98231 | -103.43999 | 29983 ft | 376 kts | 282° |
| 2026-05-03 21:49 | 33.99343 | -103.50125 | 29982 ft | 377 kts | 282° |
| 2026-05-03 21:49 | 34.00459 | -103.56291 | 29968 ft | 376 kts | 282° |
| 2026-05-03 21:50 | 34.01570 | -103.62451 | 29968 ft | 376 kts | 282° |
| 2026-05-03 21:50 | 34.02677 | -103.68603 | 29966 ft | 375 kts | 282° |
| 2026-05-03 21:51 | 34.03780 | -103.74755 | 29974 ft | 375 kts | 282° |
| 2026-05-03 21:51 | 34.04871 | -103.80861 | 29964 ft | 375 kts | 282° |
| 2026-05-03 21:52 | 34.05969 | -103.87016 | 29928 ft | 376 kts | 281° |
| 2026-05-03 21:52 | 34.07062 | -103.93173 | 29928 ft | 376 kts | 281° |
| 2026-05-03 21:53 | 34.08154 | -103.99334 | 29930 ft | 375 kts | 281° |
| 2026-05-03 21:53 | 34.09235 | -104.05455 | 29926 ft | 375 kts | 281° |
| 2026-05-03 21:54 | 34.10318 | -104.11603 | 29938 ft | 375 kts | 281° |
| 2026-05-03 21:54 | 34.11397 | -104.17752 | 29932 ft | 374 kts | 281° |
| 2026-05-03 21:55 | 34.12472 | -104.23898 | 29942 ft | 374 kts | 281° |
| 2026-05-03 21:55 | 34.13539 | -104.30014 | 29948 ft | 375 kts | 281° |
| 2026-05-03 21:56 | 34.14612 | -104.36186 | 29980 ft | 376 kts | 281° |
| 2026-05-03 21:56 | 34.15684 | -104.42371 | 29967 ft | 377 kts | 281° |
| 2026-05-03 21:57 | 34.16754 | -104.48564 | 29958 ft | 377 kts | 281° |
| 2026-05-03 21:57 | 34.17821 | -104.54755 | 29970 ft | 376 kts | 281° |
| 2026-05-03 21:58 | 34.18876 | -104.60901 | 29961 ft | 376 kts | 281° |
| 2026-05-03 21:58 | 34.19935 | -104.67088 | 29969 ft | 376 kts | 281° |
| 2026-05-03 21:59 | 34.20989 | -104.73265 | 29970 ft | 375 kts | 281° |
| 2026-05-03 21:59 | 34.22039 | -104.79439 | 29971 ft | 375 kts | 281° |
| 2026-05-03 22:00 | 34.23086 | -104.85614 | 29970 ft | 375 kts | 281° |
| 2026-05-03 22:00 | 34.24123 | -104.91753 | 29967 ft | 375 kts | 281° |
| 2026-05-03 22:01 | 34.25161 | -104.97911 | 29973 ft | 375 kts | 281° |
| 2026-05-03 22:01 | 34.26195 | -105.04072 | 29977 ft | 374 kts | 281° |
| 2026-05-03 22:02 | 34.27226 | -105.10231 | 29992 ft | 373 kts | 281° |
| 2026-05-03 22:02 | 34.28078 | -105.15334 | 29987 ft | 373 kts | 281° |
| 2026-05-03 22:03 | 34.29265 | -105.22471 | 30033 ft | 373 kts | 280° |
| 2026-05-03 22:03 | 34.30282 | -105.28608 | 30007 ft | 374 kts | 280° |
| 2026-05-03 22:04 | 34.31128 | -105.33729 | 30000 ft | 374 kts | 280° |
| 2026-05-03 22:04 | 34.32145 | -105.39901 | 30021 ft | 374 kts | 280° |
| 2026-05-03 22:05 | 34.33160 | -105.46082 | 30021 ft | 375 kts | 280° |
| 2026-05-03 22:05 | 34.34337 | -105.53275 | 30026 ft | 375 kts | 280° |
| 2026-05-03 22:06 | 34.35177 | -105.58425 | 30028 ft | 375 kts | 280° |
| 2026-05-03 22:06 | 34.36184 | -105.64612 | 30016 ft | 375 kts | 279° |
| 2026-05-03 22:07 | 34.37222 | -105.70788 | 30032 ft | 374 kts | 281° |
| 2026-05-03 22:07 | 34.38375 | -105.76923 | 30035 ft | 374 kts | 281° |
| 2026-05-03 22:08 | 34.39541 | -105.83062 | 30035 ft | 374 kts | 281° |
| 2026-05-03 22:08 | 34.40689 | -105.89175 | 30032 ft | 374 kts | 281° |
| 2026-05-03 22:09 | 34.41824 | -105.95271 | 30034 ft | 374 kts | 281° |
| 2026-05-03 22:10 | 34.43530 | -106.04493 | 30064 ft | 374 kts | 281° |
| 2026-05-03 22:10 | 34.44665 | -106.10654 | 30036 ft | 375 kts | 281° |
| 2026-05-03 22:11 | 34.45797 | -106.16819 | 30023 ft | 375 kts | 281° |
| 2026-05-03 22:11 | 34.46918 | -106.22937 | 30026 ft | 374 kts | 281° |
| 2026-05-03 22:12 | 34.48042 | -106.29096 | 30014 ft | 374 kts | 281° |
| 2026-05-03 22:12 | 34.49163 | -106.35253 | 29993 ft | 374 kts | 281° |
| 2026-05-03 22:13 | 34.50278 | -106.41398 | 30009 ft | 373 kts | 281° |
| 2026-05-03 22:13 | 34.51391 | -106.47550 | 30014 ft | 373 kts | 281° |
| 2026-05-03 22:14 | 34.52494 | -106.53669 | 30021 ft | 374 kts | 281° |
| 2026-05-03 22:14 | 34.53602 | -106.59833 | 30044 ft | 374 kts | 281° |
| 2026-05-03 22:15 | 34.54707 | -106.65991 | 30058 ft | 374 kts | 281° |
| 2026-05-03 22:15 | 34.55806 | -106.72145 | 30085 ft | 373 kts | 281° |
| 2026-05-03 22:16 | 34.56899 | -106.78276 | 30100 ft | 371 kts | 281° |
| 2026-05-03 22:16 | 34.57979 | -106.84354 | 30114 ft | 370 kts | 281° |
| 2026-05-03 22:17 | 34.59061 | -106.90468 | 29962 ft | 371 kts | 281° |
| 2026-05-03 22:17 | 34.60126 | -106.96504 | 29961 ft | 371 kts | 280° |
| 2026-05-03 22:18 | 34.61204 | -107.02626 | 29962 ft | 372 kts | 280° |
| 2026-05-03 22:18 | 34.62280 | -107.08760 | 29961 ft | 370 kts | 279° |
| 2026-05-03 22:19 | 34.63339 | -107.14811 | 29949 ft | 368 kts | 279° |
| 2026-05-03 22:19 | 34.64397 | -107.20881 | 29936 ft | 367 kts | 279° |
| 2026-05-03 22:20 | 34.65432 | -107.26833 | 29927 ft | 366 kts | 279° |
| 2026-05-03 22:20 | 34.66479 | -107.32882 | 29944 ft | 367 kts | 279° |
| 2026-05-03 22:21 | 34.67523 | -107.38921 | 29936 ft | 368 kts | 279° |
| 2026-05-03 22:21 | 34.68572 | -107.45015 | 29936 ft | 369 kts | 279° |
| 2026-05-03 22:22 | 34.69621 | -107.51127 | 29930 ft | 370 kts | 279° |
| 2026-05-03 22:22 | 34.70669 | -107.57244 | 29935 ft | 370 kts | 279° |
| 2026-05-03 22:23 | 34.71712 | -107.63361 | 29932 ft | 369 kts | 279° |
| 2026-05-03 22:23 | 34.72743 | -107.69425 | 29936 ft | 368 kts | 279° |
| 2026-05-03 22:24 | 34.73777 | -107.75520 | 29908 ft | 368 kts | 279° |
| 2026-05-03 22:24 | 34.74806 | -107.81615 | 29926 ft | 368 kts | 279° |
| 2026-05-03 22:25 | 34.75834 | -107.87716 | 29936 ft | 369 kts | 279° |
| 2026-05-03 22:25 | 34.76862 | -107.93841 | 29921 ft | 370 kts | 279° |
| 2026-05-03 22:26 | 34.77882 | -107.99936 | 29928 ft | 370 kts | 279° |
| 2026-05-03 22:26 | 34.78905 | -108.06069 | 29925 ft | 369 kts | 279° |
| 2026-05-03 22:27 | 34.79923 | -108.12189 | 29925 ft | 369 kts | 279° |
| 2026-05-03 22:27 | 34.80936 | -108.18300 | 29921 ft | 368 kts | 279° |
| 2026-05-03 22:28 | 34.81937 | -108.24365 | 29925 ft | 368 kts | 279° |
| 2026-05-03 22:28 | 34.82943 | -108.30479 | 29923 ft | 369 kts | 279° |
| 2026-05-03 22:29 | 34.83948 | -108.36598 | 29936 ft | 369 kts | 278° |
| 2026-05-03 22:29 | 34.84952 | -108.42735 | 29915 ft | 370 kts | 278° |
| 2026-05-03 22:30 | 34.85953 | -108.48875 | 29899 ft | 371 kts | 278° |
| 2026-05-03 22:30 | 34.86948 | -108.55000 | 29916 ft | 371 kts | 278° |
| 2026-05-03 22:31 | 34.87947 | -108.61168 | 29916 ft | 372 kts | 278° |
| 2026-05-03 22:31 | 34.88934 | -108.67281 | 29914 ft | 372 kts | 278° |
| 2026-05-03 22:32 | 34.89928 | -108.73462 | 29897 ft | 372 kts | 278° |
| 2026-05-03 22:32 | 34.90911 | -108.79594 | 29892 ft | 371 kts | 278° |
| 2026-05-03 22:33 | 34.91896 | -108.85760 | 29887 ft | 370 kts | 278° |
| 2026-05-03 22:33 | 34.92876 | -108.91916 | 29890 ft | 370 kts | 278° |
| 2026-05-03 22:34 | 34.93853 | -108.98072 | 29892 ft | 370 kts | 278° |
| 2026-05-03 22:34 | 34.94826 | -109.04224 | 29879 ft | 370 kts | 278° |
| 2026-05-03 22:35 | 34.95788 | -109.10331 | 29878 ft | 369 kts | 278° |
| 2026-05-03 22:35 | 34.96762 | -109.16491 | 29888 ft | 371 kts | 278° |
| 2026-05-03 22:36 | 34.97918 | -109.22657 | 29889 ft | 374 kts | 280° |
| 2026-05-03 22:36 | 34.99114 | -109.28710 | 29896 ft | 374 kts | 280° |
| 2026-05-03 22:37 | 35.00311 | -109.34838 | 29887 ft | 374 kts | 280° |
| 2026-05-03 22:37 | 35.01498 | -109.41004 | 29885 ft | 373 kts | 280° |
| 2026-05-03 22:38 | 35.02677 | -109.47174 | 29875 ft | 373 kts | 279° |
| 2026-05-03 22:38 | 35.03082 | -109.49304 | 29871 ft | 373 kts | 279° |
| 2026-05-03 22:39 | 35.04253 | -109.55465 | 29873 ft | 372 kts | 279° |
| 2026-05-03 22:39 | 35.05419 | -109.61621 | 29881 ft | 372 kts | 279° |
| 2026-05-03 22:40 | 35.06581 | -109.67775 | 29872 ft | 372 kts | 279° |
| 2026-05-03 22:40 | 35.07732 | -109.73893 | 29870 ft | 372 kts | 279° |
| 2026-05-03 22:41 | 35.08888 | -109.80053 | 29888 ft | 373 kts | 279° |
| 2026-05-03 22:41 | 35.10045 | -109.86248 | 29880 ft | 375 kts | 279° |
| 2026-05-03 22:42 | 35.11207 | -109.92472 | 29877 ft | 377 kts | 279° |
| 2026-05-03 22:42 | 35.12362 | -109.98678 | 29864 ft | 377 kts | 279° |
| 2026-05-03 22:43 | 35.13521 | -110.04926 | 29862 ft | 377 kts | 279° |
| 2026-05-03 22:43 | 35.14675 | -110.11170 | 29869 ft | 376 kts | 279° |
| 2026-05-03 22:44 | 35.15823 | -110.17397 | 29875 ft | 375 kts | 279° |
| 2026-05-03 22:44 | 35.16955 | -110.23555 | 29855 ft | 373 kts | 279° |
| 2026-05-03 22:45 | 35.18087 | -110.29735 | 29856 ft | 372 kts | 279° |
| 2026-05-03 22:45 | 35.19215 | -110.35910 | 29853 ft | 372 kts | 279° |
| 2026-05-03 22:46 | 35.20339 | -110.42089 | 29856 ft | 372 kts | 279° |
| 2026-05-03 22:46 | 35.21460 | -110.48264 | 29869 ft | 372 kts | 278° |
| 2026-05-03 22:47 | 35.22571 | -110.54402 | 29847 ft | 372 kts | 278° |
| 2026-05-03 22:47 | 35.23684 | -110.60575 | 29843 ft | 371 kts | 278° |
| 2026-05-03 22:48 | 35.24793 | -110.66739 | 29831 ft | 371 kts | 278° |
| 2026-05-03 22:48 | 35.25898 | -110.72905 | 29834 ft | 371 kts | 278° |
| 2026-05-03 22:49 | 35.26992 | -110.79027 | 29824 ft | 371 kts | 278° |
| 2026-05-03 22:49 | 35.28090 | -110.85188 | 29825 ft | 371 kts | 278° |
| 2026-05-03 22:50 | 35.29185 | -110.91354 | 29821 ft | 371 kts | 278° |
| 2026-05-03 22:50 | 35.30278 | -110.97524 | 29823 ft | 371 kts | 278° |
| 2026-05-03 22:51 | 35.31366 | -111.03693 | 29834 ft | 371 kts | 278° |
| 2026-05-03 22:51 | 35.32444 | -111.09816 | 29835 ft | 370 kts | 278° |
| 2026-05-03 22:52 | 35.33525 | -111.15977 | 29862 ft | 370 kts | 278° |
| 2026-05-03 22:52 | 35.34600 | -111.22126 | 29852 ft | 369 kts | 278° |
| 2026-05-03 22:53 | 35.35669 | -111.28262 | 29855 ft | 368 kts | 278° |
| 2026-05-03 22:53 | 35.36727 | -111.34349 | 29866 ft | 368 kts | 278° |
| 2026-05-03 22:54 | 35.37789 | -111.40478 | 29856 ft | 368 kts | 278° |
| 2026-05-03 22:54 | 35.38848 | -111.46620 | 29888 ft | 369 kts | 278° |
| 2026-05-03 22:55 | 35.39908 | -111.52784 | 29884 ft | 370 kts | 278° |
| 2026-05-03 22:55 | 35.40962 | -111.58926 | 29908 ft | 371 kts | 278° |
| 2026-05-03 22:56 | 35.42019 | -111.65101 | 29901 ft | 370 kts | 278° |
| 2026-05-03 22:56 | 35.43069 | -111.71260 | 29897 ft | 368 kts | 277° |
| 2026-05-03 22:57 | 35.44113 | -111.77408 | 29895 ft | 369 kts | 277° |
| 2026-05-03 22:57 | 35.45157 | -111.83563 | 29920 ft | 368 kts | 278° |
| 2026-05-03 22:58 | 35.46114 | -111.89682 | 29920 ft | 367 kts | 276° |
| 2026-05-03 22:58 | 35.46877 | -111.95883 | 29912 ft | 368 kts | 275° |
| 2026-05-03 22:59 | 35.47629 | -112.02109 | 29906 ft | 369 kts | 276° |
| 2026-05-03 22:59 | 35.48396 | -112.08340 | 29899 ft | 370 kts | 276° |
| 2026-05-03 23:00 | 35.49171 | -112.14580 | 29895 ft | 370 kts | 275° |
| 2026-05-03 23:00 | 35.49941 | -112.20784 | 29885 ft | 371 kts | 275° |
| 2026-05-03 23:01 | 35.50718 | -112.27057 | 29883 ft | 372 kts | 275° |
| 2026-05-03 23:01 | 35.51492 | -112.33341 | 29858 ft | 372 kts | 275° |
| 2026-05-03 23:02 | 35.52263 | -112.39626 | 29866 ft | 372 kts | 275° |
| 2026-05-03 23:02 | 35.52642 | -112.42723 | 29695 ft | 372 kts | 275° |
| 2026-05-03 23:02 | 35.53024 | -112.45851 | 29419 ft | 369 kts | 275° |
| 2026-05-03 23:02 | 35.53404 | -112.48965 | 29152 ft | 368 kts | 275° |
| 2026-05-03 23:03 | 35.53780 | -112.52065 | 28882 ft | 367 kts | 275° |
| 2026-05-03 23:03 | 35.54156 | -112.55163 | 28633 ft | 366 kts | 275° |
| 2026-05-03 23:03 | 35.54527 | -112.58233 | 28365 ft | 364 kts | 274° |
| 2026-05-03 23:03 | 35.54899 | -112.61319 | 28095 ft | 365 kts | 274° |
| 2026-05-03 23:04 | 35.55269 | -112.64397 | 27831 ft | 365 kts | 274° |
| 2026-05-03 23:04 | 35.55634 | -112.67436 | 27576 ft | 364 kts | 274° |
| 2026-05-03 23:04 | 35.56003 | -112.70516 | 27319 ft | 364 kts | 274° |
| 2026-05-03 23:04 | 35.56372 | -112.73596 | 27062 ft | 365 kts | 274° |
| 2026-05-03 23:05 | 35.56739 | -112.76674 | 26809 ft | 364 kts | 274° |
| 2026-05-03 23:05 | 35.57105 | -112.79750 | 26576 ft | 364 kts | 274° |
| 2026-05-03 23:05 | 35.57471 | -112.82828 | 26314 ft | 364 kts | 274° |
| 2026-05-03 23:05 | 35.57837 | -112.85910 | 26072 ft | 364 kts | 274° |
| 2026-05-03 23:06 | 35.58201 | -112.88986 | 25834 ft | 364 kts | 274° |
| 2026-05-03 23:06 | 35.58564 | -112.92066 | 25590 ft | 364 kts | 273° |
| 2026-05-03 23:06 | 35.58921 | -112.95101 | 25350 ft | 364 kts | 273° |
| 2026-05-03 23:06 | 35.59274 | -112.98103 | 25111 ft | 363 kts | 273° |
| 2026-05-03 23:07 | 35.59633 | -113.01167 | 24878 ft | 363 kts | 273° |
| 2026-05-03 23:07 | 35.59992 | -113.04239 | 24647 ft | 362 kts | 273° |
| 2026-05-03 23:07 | 35.60349 | -113.07301 | 24406 ft | 362 kts | 273° |
| 2026-05-03 23:07 | 35.60706 | -113.10369 | 24183 ft | 362 kts | 273° |
| 2026-05-03 23:08 | 35.61062 | -113.13429 | 23942 ft | 362 kts | 273° |
| 2026-05-03 23:08 | 35.61416 | -113.16485 | 23715 ft | 361 kts | 273° |
| 2026-05-03 23:08 | 35.61764 | -113.19500 | 23495 ft | 361 kts | 273° |
| 2026-05-03 23:08 | 35.62116 | -113.22553 | 23245 ft | 361 kts | 272° |
| 2026-05-03 23:09 | 35.62467 | -113.25603 | 22964 ft | 360 kts | 272° |
| 2026-05-03 23:09 | 35.62817 | -113.28654 | 22711 ft | 361 kts | 272° |
| 2026-05-03 23:09 | 35.63167 | -113.31719 | 22447 ft | 363 kts | 272° |
| 2026-05-03 23:09 | 35.63518 | -113.34792 | 22184 ft | 364 kts | 273° |
| 2026-05-03 23:10 | 35.63870 | -113.37877 | 21912 ft | 365 kts | 272° |
| 2026-05-03 23:10 | 35.64221 | -113.40970 | 21640 ft | 366 kts | 273° |
| 2026-05-03 23:10 | 35.64571 | -113.44029 | 21395 ft | 366 kts | 273° |
| 2026-05-03 23:10 | 35.64921 | -113.47118 | 21140 ft | 363 kts | 273° |
| 2026-05-03 23:11 | 35.65275 | -113.50179 | 20864 ft | 360 kts | 274° |
| 2026-05-03 23:11 | 35.65721 | -113.53215 | 20614 ft | 362 kts | 276° |
| 2026-05-03 23:11 | 35.66226 | -113.56252 | 20365 ft | 363 kts | 277° |
| 2026-05-03 23:11 | 35.66745 | -113.59294 | 20124 ft | 364 kts | 277° |
| 2026-05-03 23:12 | 35.67265 | -113.62345 | 19868 ft | 365 kts | 277° |
| 2026-05-03 23:12 | 35.67778 | -113.65400 | 19619 ft | 365 kts | 277° |
| 2026-05-03 23:12 | 35.68287 | -113.68460 | 19383 ft | 365 kts | 277° |
| 2026-05-03 23:12 | 35.68786 | -113.71483 | 19137 ft | 365 kts | 277° |
| 2026-05-03 23:13 | 35.69287 | -113.74543 | 18903 ft | 365 kts | 277° |
| 2026-05-03 23:13 | 35.69785 | -113.77600 | 18674 ft | 363 kts | 276° |
| 2026-05-03 23:13 | 35.70279 | -113.80640 | 18429 ft | 361 kts | 276° |
| 2026-05-03 23:13 | 35.70768 | -113.83658 | 18199 ft | 360 kts | 277° |
| 2026-05-03 23:14 | 35.71256 | -113.86669 | 17971 ft | 359 kts | 276° |
| 2026-05-03 23:14 | 35.71742 | -113.89683 | 17697 ft | 359 kts | 277° |
| 2026-05-03 23:14 | 35.72221 | -113.92657 | 17449 ft | 361 kts | 277° |
| 2026-05-03 23:14 | 35.72712 | -113.95709 | 17189 ft | 365 kts | 276° |
| 2026-05-03 23:15 | 35.73206 | -113.98770 | 16932 ft | 364 kts | 276° |
| 2026-05-03 23:15 | 35.73695 | -114.01818 | 16662 ft | 360 kts | 276° |
| 2026-05-03 23:15 | 35.74177 | -114.04830 | 16401 ft | 358 kts | 277° |
| 2026-05-03 23:15 | 35.74657 | -114.07829 | 16154 ft | 356 kts | 277° |
| 2026-05-03 23:16 | 35.75133 | -114.10802 | 15899 ft | 350 kts | 277° |
| 2026-05-03 23:16 | 35.75597 | -114.13687 | 15630 ft | 337 kts | 275° |
| 2026-05-03 23:16 | 35.76246 | -114.16387 | 15359 ft | 334 kts | 289° |
| 2026-05-03 23:16 | 35.77340 | -114.18913 | 15121 ft | 326 kts | 295° |
| 2026-05-03 23:17 | 35.78431 | -114.21278 | 14876 ft | 317 kts | 294° |
| 2026-05-03 23:17 | 35.79508 | -114.23623 | 14627 ft | 314 kts | 293° |
| 2026-05-03 23:17 | 35.80562 | -114.25975 | 14377 ft | 314 kts | 292° |
| 2026-05-03 23:17 | 35.81608 | -114.28341 | 14151 ft | 316 kts | 293° |
| 2026-05-03 23:18 | 35.82666 | -114.30732 | 13919 ft | 319 kts | 291° |
| 2026-05-03 23:18 | 35.83732 | -114.33146 | 13705 ft | 322 kts | 294° |
| 2026-05-03 23:18 | 35.84981 | -114.35471 | 13460 ft | 328 kts | 302° |
| 2026-05-03 23:18 | 35.86385 | -114.37689 | 13198 ft | 327 kts | 304° |
| 2026-05-03 23:19 | 35.87796 | -114.39862 | 12945 ft | 321 kts | 303° |
| 2026-05-03 23:19 | 35.89148 | -114.41950 | 12676 ft | 311 kts | 302° |
| 2026-05-03 23:19 | 35.90468 | -114.44025 | 12414 ft | 305 kts | 302° |
| 2026-05-03 23:19 | 35.91763 | -114.46084 | 12099 ft | 303 kts | 302° |
| 2026-05-03 23:20 | 35.93054 | -114.48154 | 11714 ft | 306 kts | 302° |
| 2026-05-03 23:20 | 35.94347 | -114.50237 | 11286 ft | 306 kts | 302° |
| 2026-05-03 23:20 | 35.95640 | -114.52312 | 10853 ft | 305 kts | 301° |
| 2026-05-03 23:20 | 35.96926 | -114.54390 | 10426 ft | 304 kts | 302° |
| 2026-05-03 23:21 | 35.98203 | -114.56460 | 10115 ft | 299 kts | 302° |
| 2026-05-03 23:21 | 35.99424 | -114.58441 | 9884 ft | 291 kts | 302° |
| 2026-05-03 23:21 | 36.00648 | -114.60430 | 9492 ft | 290 kts | 301° |
| 2026-05-03 23:21 | 36.01869 | -114.62420 | 9108 ft | 291 kts | 301° |
| 2026-05-03 23:22 | 36.04283 | -114.66416 | 8330 ft | 287 kts | 297° |
| 2026-05-03 23:22 | 36.05300 | -114.68479 | 8200 ft | 276 kts | 296° |
| 2026-05-03 23:22 | 36.06260 | -114.70483 | 8073 ft | 267 kts | 294° |
| 2026-05-03 23:23 | 36.07118 | -114.72444 | 7926 ft | 251 kts | 282° |
| 2026-05-03 23:23 | 36.07368 | -114.74462 | 7711 ft | 238 kts | 264° |
| 2026-05-03 23:23 | 36.07380 | -114.76513 | 7431 ft | 236 kts | 262° |
| 2026-05-03 23:23 | 36.07368 | -114.78529 | 7173 ft | 234 kts | 263° |
| 2026-05-03 23:24 | 36.07361 | -114.80541 | 6907 ft | 234 kts | 263° |
| 2026-05-03 23:24 | 36.07360 | -114.82551 | 6627 ft | 233 kts | 263° |
| 2026-05-03 23:24 | 36.07359 | -114.83230 | 6542 ft | 233 kts | 263° |
| 2026-05-03 23:24 | 36.07359 | -114.84232 | 6406 ft | 230 kts | 262° |
| 2026-05-03 23:25 | 36.07363 | -114.86156 | 6110 ft | 217 kts | 262° |
| 2026-05-03 23:25 | 36.07366 | -114.87941 | 5834 ft | 205 kts | 262° |
| 2026-05-03 23:25 | 36.07369 | -114.89666 | 5567 ft | 196 kts | 259° |
| 2026-05-03 23:25 | 36.07370 | -114.91315 | 5335 ft | 188 kts | 260° |
| 2026-05-03 23:26 | 36.07371 | -114.92916 | 5078 ft | 184 kts | 261° |
| 2026-05-03 23:26 | 36.07375 | -114.94457 | 4828 ft | 175 kts | 260° |
| 2026-05-03 23:26 | 36.07374 | -114.95941 | 4620 ft | 172 kts | 259° |
| 2026-05-03 23:26 | 36.07371 | -114.97442 | 4432 ft | 177 kts | 258° |
| 2026-05-03 23:27 | 36.07369 | -114.98974 | 4211 ft | 178 kts | 259° |
| 2026-05-03 23:27 | 36.07371 | -115.00477 | 3999 ft | 172 kts | 261° |
| 2026-05-03 23:27 | 36.07366 | -115.01921 | 3763 ft | 165 kts | 264° |
| 2026-05-03 23:27 | 36.07370 | -115.03313 | 3536 ft | 159 kts | 262° |
| 2026-05-03 23:28 | 36.07372 | -115.04632 | 3351 ft | 150 kts | 261° |
| 2026-05-03 23:28 | 36.07389 | -115.05844 | 3200 ft | 134 kts | 267° |
| 2026-05-03 23:28 | 36.07453 | -115.07014 | 3017 ft | 145 kts | 261° |
| 2026-05-03 23:28 | 36.07426 | -115.08272 | 2849 ft | 148 kts | 262° |
| 2026-05-03 23:29 | 36.07416 | -115.09506 | 2661 ft | 144 kts | 263° |
| 2026-05-03 23:29 | 36.07370 | -115.10725 | 2488 ft | 137 kts | 264° |
| 2026-05-03 23:29 | 36.07378 | -115.11862 | 2208 ft | 132 kts | 264° |
| 2026-05-03 23:29 | 36.07372 | -115.12992 | 2093 ft | 133 kts | 262° |
| 2026-05-03 23:30 | 36.07358 | -115.13991 | 2100 ft | 97 kts | 270° |
| 2026-05-03 23:30 | 36.07362 | -115.14562 | 2119 ft | 41 kts | 270° |
| 2026-05-03 23:30 | 36.07387 | -115.14833 | 2130 ft | 28 kts | 287° |
| 2026-05-03 23:30 | 36.07433 | -115.14965 | 2127 ft | 10 kts | 298° |
| 2026-05-03 23:31 | 36.07445 | -115.14993 | 2127 ft | 3 kts | 300° |
| 2026-05-03 23:31 | 36.07451 | -115.15005 | 2127 ft | 4 kts | 300° |
| 2026-05-03 23:31 | 36.07500 | -115.15093 | 2127 ft | 15 kts | 314° |
| 2026-05-03 23:31 | 36.07528 | -115.15123 | 2128 ft | 0 kts | 322° |
| 2026-05-03 23:32 | 36.07530 | -115.15125 | 2128 ft | 0 kts | 323° |
| 2026-05-03 23:34 | 36.07535 | -115.15129 | 2128 ft | 8 kts | 324° |
| 2026-05-03 23:34 | 36.07672 | -115.15211 | 2132 ft | 25 kts | 335° |
| 2026-05-03 23:34 | 36.07774 | -115.15271 | 2135 ft | 13 kts | 334° |
| 2026-05-03 23:35 | 36.07854 | -115.15317 | 2137 ft | 13 kts | 334° |
| 2026-05-03 23:35 | 36.07912 | -115.15350 | 2136 ft | 9 kts | 335° |
| 2026-05-03 23:35 | 36.07972 | -115.15385 | 2134 ft | 10 kts | 335° |
| 2026-05-03 23:35 | 36.07995 | -115.15398 | 2134 ft | 0 kts | 335° |
| 2026-05-03 23:36 | 36.07998 | -115.15399 | 2134 ft | 4 kts | 335° |
| 2026-05-03 23:36 | 36.08010 | -115.15406 | 2132 ft | 8 kts | 335° |
| 2026-05-03 23:36 | 36.08091 | -115.15440 | 2132 ft | 18 kts | 0° |
| 2026-05-03 23:37 | 36.08121 | -115.15348 | 2129 ft | 14 kts | 102° |
| 2026-05-03 23:37 | 36.08098 | -115.15236 | 2126 ft | 5 kts | 104° |
| 2026-05-03 23:37 | 36.08097 | -115.15192 | 2122 ft | 6 kts | 86° |
| 2026-05-03 23:37 | 36.08103 | -115.15133 | 2121 ft | 8 kts | 78° |
| 2026-05-03 23:38 | 36.08162 | -115.15107 | 2115 ft | 12 kts | 353° |
| 2026-05-03 23:38 | 36.08183 | -115.15109 | 2115 ft | 2 kts | 360° |
| 2026-05-03 23:38 | 36.08215 | -115.15103 | 2115 ft | 1 kts | 14° |
| 2026-05-03 23:38 | 36.08221 | -115.15101 | 2115 ft | 1 kts | 14° |
| 2026-05-03 23:39 | 36.08228 | -115.15099 | 2117 ft | 1 kts | 14° |